sensor_id;sensor_type;location;lat;lon;timestamp;temperature;humidity
1075;DHT22;526;51.392;12.448;2022-07-06T00:01:40;19.40;88.20
1075;DHT22;526;51.392;12.448;2022-07-06T00:04:06;19.30;89.20
1075;DHT22;526;51.392;12.448;2022-07-06T00:06:32;19.30;90.20
1075;DHT22;526;51.392;12.448;2022-07-06T00:08:58;19.20;90.80
1075;DHT22;526;51.392;12.448;2022-07-06T00:11:23;19.20;91.00
1075;DHT22;526;51.392;12.448;2022-07-06T00:13:50;19.10;91.20
1075;DHT22;526;51.392;12.448;2022-07-06T00:16:16;19.10;91.10
1075;DHT22;526;51.392;12.448;2022-07-06T00:18:42;19.00;91.40
1075;DHT22;526;51.392;12.448;2022-07-06T00:21:08;19.00;91.30
1075;DHT22;526;51.392;12.448;2022-07-06T00:23:33;19.00;90.30
1075;DHT22;526;51.392;12.448;2022-07-06T00:25:59;19.00;89.40
1075;DHT22;526;51.392;12.448;2022-07-06T00:28:25;18.90;89.00
1075;DHT22;526;51.392;12.448;2022-07-06T00:30:50;19.00;89.00
1075;DHT22;526;51.392;12.448;2022-07-06T00:33:17;19.00;88.70
1075;DHT22;526;51.392;12.448;2022-07-06T00:35:42;18.90;87.60
1075;DHT22;526;51.392;12.448;2022-07-06T00:38:08;18.90;87.60
1075;DHT22;526;51.392;12.448;2022-07-06T00:40:33;18.90;88.00
1075;DHT22;526;51.392;12.448;2022-07-06T00:42:59;18.80;88.10
1075;DHT22;526;51.392;12.448;2022-07-06T00:45:24;18.80;87.50
1075;DHT22;526;51.392;12.448;2022-07-06T00:47:50;18.80;87.00
1075;DHT22;526;51.392;12.448;2022-07-06T00:50:17;18.80;87.00
1075;DHT22;526;51.392;12.448;2022-07-06T00:52:54;18.80;86.80
1075;DHT22;526;51.392;12.448;2022-07-06T00:55:26;18.80;86.50
1075;DHT22;526;51.392;12.448;2022-07-06T00:57:52;18.70;86.20
1075;DHT22;526;51.392;12.448;2022-07-06T01:00:20;18.70;86.20
1075;DHT22;526;51.392;12.448;2022-07-06T01:02:46;18.60;86.40
1075;DHT22;526;51.392;12.448;2022-07-06T01:05:14;18.60;86.50
1075;DHT22;526;51.392;12.448;2022-07-06T01:07:42;18.50;86.40
1075;DHT22;526;51.392;12.448;2022-07-06T01:10:10;18.50;86.50
1075;DHT22;526;51.392;12.448;2022-07-06T01:12:36;18.50;86.60
1075;DHT22;526;51.392;12.448;2022-07-06T01:15:08;18.40;86.70
1075;DHT22;526;51.392;12.448;2022-07-06T01:17:34;18.40;86.80
1075;DHT22;526;51.392;12.448;2022-07-06T01:20:16;18.40;87.10
1075;DHT22;526;51.392;12.448;2022-07-06T01:22:42;18.30;87.40
1075;DHT22;526;51.392;12.448;2022-07-06T01:25:09;18.30;87.40
1075;DHT22;526;51.392;12.448;2022-07-06T01:27:35;18.30;87.30
1075;DHT22;526;51.392;12.448;2022-07-06T01:30:14;18.30;87.10
1075;DHT22;526;51.392;12.448;2022-07-06T01:32:41;18.20;87.30
1075;DHT22;526;51.392;12.448;2022-07-06T01:35:08;18.20;87.50
1075;DHT22;526;51.392;12.448;2022-07-06T01:37:35;18.10;87.40
1075;DHT22;526;51.392;12.448;2022-07-06T01:40:02;18.10;87.40
1075;DHT22;526;51.392;12.448;2022-07-06T01:42:28;18.00;87.50
1075;DHT22;526;51.392;12.448;2022-07-06T01:44:54;17.90;87.70
1075;DHT22;526;51.392;12.448;2022-07-06T01:47:20;17.80;87.80
1075;DHT22;526;51.392;12.448;2022-07-06T01:49:46;17.80;87.90
1075;DHT22;526;51.392;12.448;2022-07-06T01:52:11;17.70;87.90
1075;DHT22;526;51.392;12.448;2022-07-06T01:54:37;17.60;88.10
1075;DHT22;526;51.392;12.448;2022-07-06T01:57:03;17.60;88.30
1075;DHT22;526;51.392;12.448;2022-07-06T01:59:29;17.50;88.60
1075;DHT22;526;51.392;12.448;2022-07-06T02:01:54;17.40;88.80
1075;DHT22;526;51.392;12.448;2022-07-06T02:04:20;17.40;89.00
1075;DHT22;526;51.392;12.448;2022-07-06T02:06:45;17.40;89.10
1075;DHT22;526;51.392;12.448;2022-07-06T02:09:11;17.30;89.10
1075;DHT22;526;51.392;12.448;2022-07-06T02:11:37;17.20;89.20
1075;DHT22;526;51.392;12.448;2022-07-06T02:14:02;17.20;89.30
1075;DHT22;526;51.392;12.448;2022-07-06T02:16:28;17.20;89.60
1075;DHT22;526;51.392;12.448;2022-07-06T02:18:53;17.10;89.80
1075;DHT22;526;51.392;12.448;2022-07-06T02:21:19;17.10;89.80
1075;DHT22;526;51.392;12.448;2022-07-06T02:23:45;17.00;90.00
1075;DHT22;526;51.392;12.448;2022-07-06T02:26:10;17.00;90.30
1075;DHT22;526;51.392;12.448;2022-07-06T02:28:36;17.00;90.50
1075;DHT22;526;51.392;12.448;2022-07-06T02:31:01;17.00;90.60
1075;DHT22;526;51.392;12.448;2022-07-06T02:33:27;16.90;90.70
1075;DHT22;526;51.392;12.448;2022-07-06T02:35:53;16.90;90.90
1075;DHT22;526;51.392;12.448;2022-07-06T02:38:18;16.90;91.00
1075;DHT22;526;51.392;12.448;2022-07-06T02:40:44;16.90;91.10
1075;DHT22;526;51.392;12.448;2022-07-06T02:43:10;16.80;91.30
1075;DHT22;526;51.392;12.448;2022-07-06T02:45:36;16.80;91.00
1075;DHT22;526;51.392;12.448;2022-07-06T02:48:02;16.80;91.30
1075;DHT22;526;51.392;12.448;2022-07-06T02:50:27;16.80;91.40
1075;DHT22;526;51.392;12.448;2022-07-06T02:52:53;16.80;91.70
1075;DHT22;526;51.392;12.448;2022-07-06T02:55:20;16.80;91.60
1075;DHT22;526;51.392;12.448;2022-07-06T02:57:45;16.80;91.80
1075;DHT22;526;51.392;12.448;2022-07-06T03:00:11;16.70;91.70
1075;DHT22;526;51.392;12.448;2022-07-06T03:02:37;16.70;91.90
1075;DHT22;526;51.392;12.448;2022-07-06T03:05:03;16.70;92.10
1075;DHT22;526;51.392;12.448;2022-07-06T03:07:28;16.70;92.20
1075;DHT22;526;51.392;12.448;2022-07-06T03:09:54;16.60;92.30
1075;DHT22;526;51.392;12.448;2022-07-06T03:12:20;16.60;92.40
1075;DHT22;526;51.392;12.448;2022-07-06T03:14:45;16.60;92.70
1075;DHT22;526;51.392;12.448;2022-07-06T03:17:11;16.50;92.70
1075;DHT22;526;51.392;12.448;2022-07-06T03:19:37;16.50;92.90
1075;DHT22;526;51.392;12.448;2022-07-06T03:22:02;16.50;92.90
1075;DHT22;526;51.392;12.448;2022-07-06T03:24:28;16.50;93.00
1075;DHT22;526;51.392;12.448;2022-07-06T03:26:54;16.50;93.20
1075;DHT22;526;51.392;12.448;2022-07-06T03:29:19;16.50;93.30
1075;DHT22;526;51.392;12.448;2022-07-06T03:31:46;16.50;93.40
1075;DHT22;526;51.392;12.448;2022-07-06T03:34:11;16.50;93.40
1075;DHT22;526;51.392;12.448;2022-07-06T03:36:37;16.50;93.60
1075;DHT22;526;51.392;12.448;2022-07-06T03:39:03;16.40;93.80
1075;DHT22;526;51.392;12.448;2022-07-06T03:41:28;16.40;93.90
1075;DHT22;526;51.392;12.448;2022-07-06T03:43:54;16.40;94.00
1075;DHT22;526;51.392;12.448;2022-07-06T03:46:20;16.40;94.00
1075;DHT22;526;51.392;12.448;2022-07-06T03:48:45;16.40;94.10
1075;DHT22;526;51.392;12.448;2022-07-06T03:51:11;16.40;94.20
1075;DHT22;526;51.392;12.448;2022-07-06T03:53:37;16.40;94.30
1075;DHT22;526;51.392;12.448;2022-07-06T03:56:03;16.40;94.30
1075;DHT22;526;51.392;12.448;2022-07-06T03:58:51;16.40;94.40
1075;DHT22;526;51.392;12.448;2022-07-06T04:01:16;16.40;94.40
1075;DHT22;526;51.392;12.448;2022-07-06T04:03:42;16.50;94.30
1075;DHT22;526;51.392;12.448;2022-07-06T04:06:10;16.50;94.20
1075;DHT22;526;51.392;12.448;2022-07-06T04:08:35;16.50;94.30
1075;DHT22;526;51.392;12.448;2022-07-06T04:11:02;16.50;94.10
1075;DHT22;526;51.392;12.448;2022-07-06T04:13:28;16.50;94.10
1075;DHT22;526;51.392;12.448;2022-07-06T04:15:54;16.50;94.30
1075;DHT22;526;51.392;12.448;2022-07-06T04:18:20;16.50;94.30
1075;DHT22;526;51.392;12.448;2022-07-06T04:20:46;16.60;94.30
1075;DHT22;526;51.392;12.448;2022-07-06T04:23:12;16.60;93.70
1075;DHT22;526;51.392;12.448;2022-07-06T04:25:37;16.60;93.60
1075;DHT22;526;51.392;12.448;2022-07-06T04:28:03;16.60;93.90
1075;DHT22;526;51.392;12.448;2022-07-06T04:30:29;16.60;93.70
1075;DHT22;526;51.392;12.448;2022-07-06T04:32:55;16.60;93.80
1075;DHT22;526;51.392;12.448;2022-07-06T04:35:21;16.60;93.90
1075;DHT22;526;51.392;12.448;2022-07-06T04:37:46;16.70;93.80
1075;DHT22;526;51.392;12.448;2022-07-06T04:40:12;16.70;93.90
1075;DHT22;526;51.392;12.448;2022-07-06T04:42:38;16.70;93.50
1075;DHT22;526;51.392;12.448;2022-07-06T04:45:04;16.60;93.20
1075;DHT22;526;51.392;12.448;2022-07-06T04:47:30;16.60;93.60
1075;DHT22;526;51.392;12.448;2022-07-06T04:49:57;16.60;93.80
1075;DHT22;526;51.392;12.448;2022-07-06T04:52:22;16.60;93.90
1075;DHT22;526;51.392;12.448;2022-07-06T04:54:48;16.60;94.00
1075;DHT22;526;51.392;12.448;2022-07-06T04:57:13;16.70;94.50
1075;DHT22;526;51.392;12.448;2022-07-06T04:59:39;16.70;94.50
1075;DHT22;526;51.392;12.448;2022-07-06T05:02:05;16.80;94.70
1075;DHT22;526;51.392;12.448;2022-07-06T05:04:30;16.80;94.70
1075;DHT22;526;51.392;12.448;2022-07-06T05:06:56;16.80;94.30
1075;DHT22;526;51.392;12.448;2022-07-06T05:09:21;16.80;94.70
1075;DHT22;526;51.392;12.448;2022-07-06T05:11:47;16.80;94.70
1075;DHT22;526;51.392;12.448;2022-07-06T05:14:13;16.80;94.70
1075;DHT22;526;51.392;12.448;2022-07-06T05:16:38;16.80;94.60
1075;DHT22;526;51.392;12.448;2022-07-06T05:19:04;16.80;94.40
1075;DHT22;526;51.392;12.448;2022-07-06T05:21:29;16.90;93.80
1075;DHT22;526;51.392;12.448;2022-07-06T05:23:55;16.90;94.00
1075;DHT22;526;51.392;12.448;2022-07-06T05:26:21;16.90;93.80
1075;DHT22;526;51.392;12.448;2022-07-06T05:28:46;16.90;93.70
1075;DHT22;526;51.392;12.448;2022-07-06T05:31:12;16.90;93.60
1075;DHT22;526;51.392;12.448;2022-07-06T05:33:38;16.90;93.50
1075;DHT22;526;51.392;12.448;2022-07-06T05:36:03;16.90;93.60
1075;DHT22;526;51.392;12.448;2022-07-06T05:38:29;16.90;93.40
1075;DHT22;526;51.392;12.448;2022-07-06T05:40:55;17.00;93.60
1075;DHT22;526;51.392;12.448;2022-07-06T05:43:20;17.00;93.50
1075;DHT22;526;51.392;12.448;2022-07-06T05:45:46;17.00;93.50
1075;DHT22;526;51.392;12.448;2022-07-06T05:48:15;17.10;93.20
1075;DHT22;526;51.392;12.448;2022-07-06T05:51:00;17.10;93.10
1075;DHT22;526;51.392;12.448;2022-07-06T05:53:27;17.10;92.90
1075;DHT22;526;51.392;12.448;2022-07-06T05:55:56;17.10;92.70
1075;DHT22;526;51.392;12.448;2022-07-06T05:58:37;17.10;92.70
1075;DHT22;526;51.392;12.448;2022-07-06T06:01:23;17.10;92.70
1075;DHT22;526;51.392;12.448;2022-07-06T06:03:48;17.10;92.20
1075;DHT22;526;51.392;12.448;2022-07-06T06:06:14;17.10;91.60
1075;DHT22;526;51.392;12.448;2022-07-06T06:08:39;17.10;91.80
1075;DHT22;526;51.392;12.448;2022-07-06T06:11:05;17.10;91.60
1075;DHT22;526;51.392;12.448;2022-07-06T06:13:30;17.10;91.30
1075;DHT22;526;51.392;12.448;2022-07-06T06:15:56;17.20;91.20
1075;DHT22;526;51.392;12.448;2022-07-06T06:18:22;17.20;90.40
1075;DHT22;526;51.392;12.448;2022-07-06T06:20:47;17.30;89.70
1075;DHT22;526;51.392;12.448;2022-07-06T06:23:15;17.30;89.50
1075;DHT22;526;51.392;12.448;2022-07-06T06:25:41;17.30;89.10
1075;DHT22;526;51.392;12.448;2022-07-06T06:28:09;17.40;88.70
1075;DHT22;526;51.392;12.448;2022-07-06T06:30:35;17.40;88.70
1075;DHT22;526;51.392;12.448;2022-07-06T06:33:11;17.50;89.00
1075;DHT22;526;51.392;12.448;2022-07-06T06:35:37;17.50;89.00
1075;DHT22;526;51.392;12.448;2022-07-06T06:38:03;17.50;89.10
1075;DHT22;526;51.392;12.448;2022-07-06T06:40:29;17.50;89.40
1075;DHT22;526;51.392;12.448;2022-07-06T06:42:54;17.60;89.80
1075;DHT22;526;51.392;12.448;2022-07-06T06:45:20;17.60;90.10
1075;DHT22;526;51.392;12.448;2022-07-06T06:47:46;17.60;89.80
1075;DHT22;526;51.392;12.448;2022-07-06T06:50:14;17.60;90.10
1075;DHT22;526;51.392;12.448;2022-07-06T06:52:39;17.70;89.80
1075;DHT22;526;51.392;12.448;2022-07-06T06:55:05;17.70;89.90
1075;DHT22;526;51.392;12.448;2022-07-06T06:57:31;17.70;89.50
1075;DHT22;526;51.392;12.448;2022-07-06T06:59:59;17.80;89.00
1075;DHT22;526;51.392;12.448;2022-07-06T07:02:25;17.80;88.20
1075;DHT22;526;51.392;12.448;2022-07-06T07:04:50;17.90;88.00
1075;DHT22;526;51.392;12.448;2022-07-06T07:07:16;17.90;87.90
1075;DHT22;526;51.392;12.448;2022-07-06T07:09:45;18.00;87.70
1075;DHT22;526;51.392;12.448;2022-07-06T07:12:11;18.00;86.70
1075;DHT22;526;51.392;12.448;2022-07-06T07:14:37;18.00;86.20
1075;DHT22;526;51.392;12.448;2022-07-06T07:17:04;18.00;86.20
1075;DHT22;526;51.392;12.448;2022-07-06T07:19:30;18.00;86.50
1075;DHT22;526;51.392;12.448;2022-07-06T07:21:56;18.10;85.70
1075;DHT22;526;51.392;12.448;2022-07-06T07:24:21;18.10;85.10
1075;DHT22;526;51.392;12.448;2022-07-06T07:26:47;18.10;85.60
1075;DHT22;526;51.392;12.448;2022-07-06T07:29:13;18.20;85.50
1075;DHT22;526;51.392;12.448;2022-07-06T07:31:39;18.30;85.40
1075;DHT22;526;51.392;12.448;2022-07-06T07:34:05;18.30;86.20
1075;DHT22;526;51.392;12.448;2022-07-06T07:36:30;18.30;85.90
1075;DHT22;526;51.392;12.448;2022-07-06T07:38:56;18.30;86.40
1075;DHT22;526;51.392;12.448;2022-07-06T07:41:21;18.40;86.00
1075;DHT22;526;51.392;12.448;2022-07-06T07:43:47;18.40;86.10
1075;DHT22;526;51.392;12.448;2022-07-06T07:46:13;18.50;86.40
1075;DHT22;526;51.392;12.448;2022-07-06T07:48:38;18.50;85.40
1075;DHT22;526;51.392;12.448;2022-07-06T07:51:04;18.50;85.30
1075;DHT22;526;51.392;12.448;2022-07-06T07:53:29;18.50;84.80
1075;DHT22;526;51.392;12.448;2022-07-06T07:55:55;18.50;84.60
1075;DHT22;526;51.392;12.448;2022-07-06T07:58:20;18.40;83.80
1075;DHT22;526;51.392;12.448;2022-07-06T08:00:46;18.40;84.30
1075;DHT22;526;51.392;12.448;2022-07-06T08:03:12;18.40;84.00
1075;DHT22;526;51.392;12.448;2022-07-06T08:05:37;18.50;84.80
1075;DHT22;526;51.392;12.448;2022-07-06T08:08:03;18.60;84.80
1075;DHT22;526;51.392;12.448;2022-07-06T08:10:29;18.70;85.40
1075;DHT22;526;51.392;12.448;2022-07-06T08:12:55;18.70;84.60
1075;DHT22;526;51.392;12.448;2022-07-06T08:15:21;18.80;84.20
1075;DHT22;526;51.392;12.448;2022-07-06T08:17:46;18.90;84.70
1075;DHT22;526;51.392;12.448;2022-07-06T08:20:12;19.00;84.90
1075;DHT22;526;51.392;12.448;2022-07-06T08:22:38;19.00;83.40
1075;DHT22;526;51.392;12.448;2022-07-06T08:25:04;19.00;83.90
1075;DHT22;526;51.392;12.448;2022-07-06T08:27:30;19.10;84.10
1075;DHT22;526;51.392;12.448;2022-07-06T08:29:56;19.10;83.40
1075;DHT22;526;51.392;12.448;2022-07-06T08:32:21;19.20;82.00
1075;DHT22;526;51.392;12.448;2022-07-06T08:34:47;19.30;81.80
1075;DHT22;526;51.392;12.448;2022-07-06T08:37:13;19.40;81.40
1075;DHT22;526;51.392;12.448;2022-07-06T08:39:38;19.40;81.60
1075;DHT22;526;51.392;12.448;2022-07-06T08:42:05;19.40;81.30
1075;DHT22;526;51.392;12.448;2022-07-06T08:44:32;19.40;80.00
1075;DHT22;526;51.392;12.448;2022-07-06T08:47:04;19.30;80.30
1075;DHT22;526;51.392;12.448;2022-07-06T08:49:30;19.30;81.10
1075;DHT22;526;51.392;12.448;2022-07-06T08:51:57;19.30;80.70
1075;DHT22;526;51.392;12.448;2022-07-06T08:54:23;19.30;80.80
1075;DHT22;526;51.392;12.448;2022-07-06T08:56:50;19.40;80.50
1075;DHT22;526;51.392;12.448;2022-07-06T08:59:16;19.50;80.80
1075;DHT22;526;51.392;12.448;2022-07-06T09:01:44;19.60;79.90
1075;DHT22;526;51.392;12.448;2022-07-06T09:04:12;19.50;80.00
1075;DHT22;526;51.392;12.448;2022-07-06T09:06:42;19.50;80.00
1075;DHT22;526;51.392;12.448;2022-07-06T09:09:08;19.50;80.70
1075;DHT22;526;51.392;12.448;2022-07-06T09:11:34;19.60;80.70
1075;DHT22;526;51.392;12.448;2022-07-06T09:14:01;19.60;79.60
1075;DHT22;526;51.392;12.448;2022-07-06T09:16:28;19.60;79.00
1075;DHT22;526;51.392;12.448;2022-07-06T09:18:54;19.60;79.00
1075;DHT22;526;51.392;12.448;2022-07-06T09:21:28;19.50;78.80
1075;DHT22;526;51.392;12.448;2022-07-06T09:23:58;19.50;78.90
1075;DHT22;526;51.392;12.448;2022-07-06T09:26:24;19.60;79.70
1075;DHT22;526;51.392;12.448;2022-07-06T09:28:50;19.70;79.70
1075;DHT22;526;51.392;12.448;2022-07-06T09:31:16;19.90;78.60
1075;DHT22;526;51.392;12.448;2022-07-06T09:34:05;20.10;77.10
1075;DHT22;526;51.392;12.448;2022-07-06T09:36:43;20.20;77.40
1075;DHT22;526;51.392;12.448;2022-07-06T09:39:25;20.20;76.30
1075;DHT22;526;51.392;12.448;2022-07-06T09:41:56;20.20;76.80
1075;DHT22;526;51.392;12.448;2022-07-06T09:44:30;20.20;76.60
1075;DHT22;526;51.392;12.448;2022-07-06T09:46:58;20.20;77.10
1075;DHT22;526;51.392;12.448;2022-07-06T09:49:24;20.30;76.50
1075;DHT22;526;51.392;12.448;2022-07-06T09:52:01;20.30;77.40
1075;DHT22;526;51.392;12.448;2022-07-06T09:54:27;20.30;76.40
1075;DHT22;526;51.392;12.448;2022-07-06T09:56:54;20.30;76.20
1075;DHT22;526;51.392;12.448;2022-07-06T09:59:21;20.20;76.70
1075;DHT22;526;51.392;12.448;2022-07-06T10:01:52;20.20;76.70
1075;DHT22;526;51.392;12.448;2022-07-06T10:04:20;20.10;77.00
1075;DHT22;526;51.392;12.448;2022-07-06T10:06:46;20.10;77.70
1075;DHT22;526;51.392;12.448;2022-07-06T10:09:13;20.10;78.00
1075;DHT22;526;51.392;12.448;2022-07-06T10:11:49;20.10;78.30
1075;DHT22;526;51.392;12.448;2022-07-06T10:14:18;20.10;77.80
1075;DHT22;526;51.392;12.448;2022-07-06T10:16:45;20.10;78.10
1075;DHT22;526;51.392;12.448;2022-07-06T10:19:11;20.20;78.40
1075;DHT22;526;51.392;12.448;2022-07-06T10:21:39;20.30;77.60
1075;DHT22;526;51.392;12.448;2022-07-06T10:24:06;20.40;77.30
1075;DHT22;526;51.392;12.448;2022-07-06T10:26:33;20.40;76.60
1075;DHT22;526;51.392;12.448;2022-07-06T10:29:03;20.50;76.60
1075;DHT22;526;51.392;12.448;2022-07-06T10:31:30;20.70;76.10
1075;DHT22;526;51.392;12.448;2022-07-06T10:33:57;20.80;75.40
1075;DHT22;526;51.392;12.448;2022-07-06T10:36:24;21.00;76.10
1075;DHT22;526;51.392;12.448;2022-07-06T10:38:51;21.20;76.00
1075;DHT22;526;51.392;12.448;2022-07-06T10:41:18;21.20;74.10
1075;DHT22;526;51.392;12.448;2022-07-06T10:43:45;21.20;73.70
1075;DHT22;526;51.392;12.448;2022-07-06T10:46:13;21.10;73.40
1075;DHT22;526;51.392;12.448;2022-07-06T10:48:40;21.20;74.70
1075;DHT22;526;51.392;12.448;2022-07-06T10:51:07;21.30;73.60
1075;DHT22;526;51.392;12.448;2022-07-06T10:53:35;21.30;74.20
1075;DHT22;526;51.392;12.448;2022-07-06T10:56:07;21.20;72.70
1075;DHT22;526;51.392;12.448;2022-07-06T11:01:14;21.00;73.90
1075;DHT22;526;51.392;12.448;2022-07-06T11:03:48;21.10;74.40
1075;DHT22;526;51.392;12.448;2022-07-06T11:09:02;21.40;73.20
1075;DHT22;526;51.392;12.448;2022-07-06T11:17:06;21.40;72.60
1075;DHT22;526;51.392;12.448;2022-07-06T11:19:27;21.40;72.00
1075;DHT22;526;51.392;12.448;2022-07-06T11:21:57;21.40;71.20
1075;DHT22;526;51.392;12.448;2022-07-06T11:24:29;21.30;72.80
1075;DHT22;526;51.392;12.448;2022-07-06T11:26:56;21.40;71.90
1075;DHT22;526;51.392;12.448;2022-07-06T11:29:24;21.50;72.30
1075;DHT22;526;51.392;12.448;2022-07-06T11:31:52;21.60;72.40
1075;DHT22;526;51.392;12.448;2022-07-06T11:34:23;21.60;71.00
1075;DHT22;526;51.392;12.448;2022-07-06T11:36:55;21.60;71.60
1075;DHT22;526;51.392;12.448;2022-07-06T11:39:20;21.70;71.50
1075;DHT22;526;51.392;12.448;2022-07-06T11:41:46;21.80;72.40
1075;DHT22;526;51.392;12.448;2022-07-06T11:44:12;21.90;71.80
1075;DHT22;526;51.392;12.448;2022-07-06T11:46:37;21.90;70.00
1075;DHT22;526;51.392;12.448;2022-07-06T11:49:08;21.70;70.90
1075;DHT22;526;51.392;12.448;2022-07-06T11:51:37;21.60;71.50
1075;DHT22;526;51.392;12.448;2022-07-06T11:54:11;21.60;72.10
1075;DHT22;526;51.392;12.448;2022-07-06T11:56:44;21.70;71.40
1075;DHT22;526;51.392;12.448;2022-07-06T11:59:10;21.70;71.00
1075;DHT22;526;51.392;12.448;2022-07-06T12:01:36;21.80;70.80
1075;DHT22;526;51.392;12.448;2022-07-06T12:04:07;21.90;70.40
1075;DHT22;526;51.392;12.448;2022-07-06T12:06:33;21.90;70.00
1075;DHT22;526;51.392;12.448;2022-07-06T12:09:00;21.80;70.20
1075;DHT22;526;51.392;12.448;2022-07-06T12:11:31;21.70;70.70
1075;DHT22;526;51.392;12.448;2022-07-06T12:14:00;21.70;70.60
1075;DHT22;526;51.392;12.448;2022-07-06T12:18:56;22.00;70.30
1075;DHT22;526;51.392;12.448;2022-07-06T12:21:22;22.00;69.80
1075;DHT22;526;51.392;12.448;2022-07-06T12:23:49;22.10;70.30
1075;DHT22;526;51.392;12.448;2022-07-06T12:26:18;22.20;71.10
1075;DHT22;526;51.392;12.448;2022-07-06T12:28:44;22.30;69.70
1075;DHT22;526;51.392;12.448;2022-07-06T12:31:10;22.30;71.50
1075;DHT22;526;51.392;12.448;2022-07-06T12:33:36;22.40;71.70
1075;DHT22;526;51.392;12.448;2022-07-06T12:36:15;22.70;70.60
1075;DHT22;526;51.392;12.448;2022-07-06T12:38:47;23.10;70.70
1075;DHT22;526;51.392;12.448;2022-07-06T12:44:09;23.20;67.50
1075;DHT22;526;51.392;12.448;2022-07-06T12:46:39;23.00;68.30
1075;DHT22;526;51.392;12.448;2022-07-06T12:49:20;22.70;69.20
1075;DHT22;526;51.392;12.448;2022-07-06T12:51:56;22.60;68.50
1075;DHT22;526;51.392;12.448;2022-07-06T12:54:24;22.70;68.70
1075;DHT22;526;51.392;12.448;2022-07-06T12:59:23;22.60;69.40
1075;DHT22;526;51.392;12.448;2022-07-06T13:01:49;22.60;70.40
1075;DHT22;526;51.392;12.448;2022-07-06T13:04:21;22.70;70.80
1075;DHT22;526;51.392;12.448;2022-07-06T13:06:47;23.00;69.40
1075;DHT22;526;51.392;12.448;2022-07-06T13:09:12;23.00;69.10
1075;DHT22;526;51.392;12.448;2022-07-06T13:11:40;23.10;68.20
1075;DHT22;526;51.392;12.448;2022-07-06T13:14:05;22.90;68.90
1075;DHT22;526;51.392;12.448;2022-07-06T13:16:31;22.70;69.20
1075;DHT22;526;51.392;12.448;2022-07-06T13:19:00;22.50;69.40
1075;DHT22;526;51.392;12.448;2022-07-06T13:21:26;22.40;69.50
1075;DHT22;526;51.392;12.448;2022-07-06T13:23:51;22.30;69.40
1075;DHT22;526;51.392;12.448;2022-07-06T13:26:17;22.20;70.40
1075;DHT22;526;51.392;12.448;2022-07-06T13:28:42;22.40;69.80
1075;DHT22;526;51.392;12.448;2022-07-06T13:31:08;22.50;69.70
1075;DHT22;526;51.392;12.448;2022-07-06T13:33:33;22.70;70.80
1075;DHT22;526;51.392;12.448;2022-07-06T13:36:01;22.90;69.60
1075;DHT22;526;51.392;12.448;2022-07-06T13:38:27;23.10;71.20
1075;DHT22;526;51.392;12.448;2022-07-06T13:40:53;23.30;70.10
1075;DHT22;526;51.392;12.448;2022-07-06T13:43:19;23.50;70.10
1075;DHT22;526;51.392;12.448;2022-07-06T13:45:46;23.60;69.40
1075;DHT22;526;51.392;12.448;2022-07-06T13:48:11;23.40;68.50
1075;DHT22;526;51.392;12.448;2022-07-06T13:50:37;23.10;68.90
1075;DHT22;526;51.392;12.448;2022-07-06T13:53:03;22.90;68.70
1075;DHT22;526;51.392;12.448;2022-07-06T13:55:30;22.70;69.30
1075;DHT22;526;51.392;12.448;2022-07-06T13:57:56;22.60;68.80
1075;DHT22;526;51.392;12.448;2022-07-06T14:00:21;22.70;72.80
1075;DHT22;526;51.392;12.448;2022-07-06T14:02:47;23.00;71.40
1075;DHT22;526;51.392;12.448;2022-07-06T14:05:13;23.40;70.90
1075;DHT22;526;51.392;12.448;2022-07-06T14:07:39;23.60;68.00
1075;DHT22;526;51.392;12.448;2022-07-06T14:10:05;23.70;67.60
1075;DHT22;526;51.392;12.448;2022-07-06T14:12:31;23.50;68.30
1075;DHT22;526;51.392;12.448;2022-07-06T14:14:56;23.40;68.40
1075;DHT22;526;51.392;12.448;2022-07-06T14:17:22;23.30;68.00
1075;DHT22;526;51.392;12.448;2022-07-06T14:19:48;23.30;68.50
1075;DHT22;526;51.392;12.448;2022-07-06T14:22:14;23.30;67.90
1075;DHT22;526;51.392;12.448;2022-07-06T14:24:40;23.30;68.20
1075;DHT22;526;51.392;12.448;2022-07-06T14:27:05;23.50;68.40
1075;DHT22;526;51.392;12.448;2022-07-06T14:29:31;23.70;68.10
1075;DHT22;526;51.392;12.448;2022-07-06T14:31:57;23.80;69.40
1075;DHT22;526;51.392;12.448;2022-07-06T14:34:22;23.90;67.50
1075;DHT22;526;51.392;12.448;2022-07-06T14:36:48;23.90;68.30
1075;DHT22;526;51.392;12.448;2022-07-06T14:39:13;23.80;69.70
1075;DHT22;526;51.392;12.448;2022-07-06T14:41:39;23.60;67.90
1075;DHT22;526;51.392;12.448;2022-07-06T14:44:05;23.40;68.30
1075;DHT22;526;51.392;12.448;2022-07-06T14:46:31;23.30;69.50
1075;DHT22;526;51.392;12.448;2022-07-06T14:48:57;23.40;68.90
1075;DHT22;526;51.392;12.448;2022-07-06T14:51:22;23.50;69.30
1075;DHT22;526;51.392;12.448;2022-07-06T14:53:48;23.30;68.20
1075;DHT22;526;51.392;12.448;2022-07-06T14:56:14;23.10;68.30
1075;DHT22;526;51.392;12.448;2022-07-06T14:58:39;22.90;68.80
1075;DHT22;526;51.392;12.448;2022-07-06T15:01:05;22.70;69.00
1075;DHT22;526;51.392;12.448;2022-07-06T15:03:31;22.50;69.40
1075;DHT22;526;51.392;12.448;2022-07-06T15:05:56;22.30;69.90
1075;DHT22;526;51.392;12.448;2022-07-06T15:08:24;22.20;69.90
1075;DHT22;526;51.392;12.448;2022-07-06T15:10:50;22.20;70.50
1075;DHT22;526;51.392;12.448;2022-07-06T15:13:16;22.10;70.60
1075;DHT22;526;51.392;12.448;2022-07-06T15:15:41;22.10;69.70
1075;DHT22;526;51.392;12.448;2022-07-06T15:18:07;22.10;71.20
1075;DHT22;526;51.392;12.448;2022-07-06T15:20:33;22.40;71.30
1075;DHT22;526;51.392;12.448;2022-07-06T15:22:59;22.80;71.70
1075;DHT22;526;51.392;12.448;2022-07-06T15:25:24;23.00;68.30
1075;DHT22;526;51.392;12.448;2022-07-06T15:27:51;22.90;68.60
1075;DHT22;526;51.392;12.448;2022-07-06T15:30:17;23.00;69.00
1075;DHT22;526;51.392;12.448;2022-07-06T15:32:43;23.20;68.90
1075;DHT22;526;51.392;12.448;2022-07-06T15:35:08;23.40;68.70
1075;DHT22;526;51.392;12.448;2022-07-06T15:37:35;23.50;69.30
1075;DHT22;526;51.392;12.448;2022-07-06T15:40:02;23.70;69.80
1075;DHT22;526;51.392;12.448;2022-07-06T15:42:28;23.80;66.30
1075;DHT22;526;51.392;12.448;2022-07-06T15:44:53;23.70;68.30
1075;DHT22;526;51.392;12.448;2022-07-06T15:47:19;23.60;67.30
1075;DHT22;526;51.392;12.448;2022-07-06T15:49:48;23.50;67.30
1075;DHT22;526;51.392;12.448;2022-07-06T15:52:14;23.60;68.00
1075;DHT22;526;51.392;12.448;2022-07-06T15:54:40;23.60;67.70
1075;DHT22;526;51.392;12.448;2022-07-06T15:57:06;23.70;67.70
1075;DHT22;526;51.392;12.448;2022-07-06T15:59:32;23.90;67.40
1075;DHT22;526;51.392;12.448;2022-07-06T16:01:57;24.20;66.30
1075;DHT22;526;51.392;12.448;2022-07-06T16:04:23;24.30;65.80
1075;DHT22;526;51.392;12.448;2022-07-06T16:06:50;24.30;65.60
1075;DHT22;526;51.392;12.448;2022-07-06T16:09:15;24.30;65.50
1075;DHT22;526;51.392;12.448;2022-07-06T16:11:41;24.30;66.30
1075;DHT22;526;51.392;12.448;2022-07-06T16:14:07;24.30;66.30
1075;DHT22;526;51.392;12.448;2022-07-06T16:16:34;24.30;65.00
1075;DHT22;526;51.392;12.448;2022-07-06T16:18:59;24.10;65.60